AirNav   Air Wisconsin pilot careers
 
 517 users online  

8Y4 Surfside Seaplane Base
Lino Lakes, Minnesota, USA

GOING TO LINO LAKES?


FAA INFORMATION EFFECTIVE 19 JULY 2018

Location

FAA Identifier: 8Y4
Lat/Long: 45-08-59.8780N / 093-07-00.8000W
45-08.997967N / 093-07.013333W
45.1499661 / -93.1168889
(estimated)
Elevation: 880 ft. / 268 m (estimated)
Variation: 03E (1985)
From city: 2 miles S of LINO LAKES, MN
Time zone: UTC -5 (UTC -6 during Standard Time)
Zip code: 55014

Seaplane Base Operations

Seaplane Base use: Open to the public
Activation date: 06/1947
Control tower: no
ARTCC: MINNEAPOLIS CENTER
FSS: PRINCETON FLIGHT SERVICE STATION
NOTAMs facility: PNM (NOTAM-D service available)
Attendance: MAY-OCT DAWN-DUSK, NOV-APR/UNATNDD/
Pattern altitude: 1480 ft. MSL
Wind indicator: yes
Segmented circle: no

Seaplane Base Communications

CTAF: 122.9
WX AWOS-3 at ANE (4 nm W): PHONE 763-780-9025
WX ASOS at MIC (11 nm SW): PHONE 763-531-2343
WX ASOS at STP (13 nm S): PHONE 651-298-1410
WX AWOS-3 at 21D (14 nm SE): 120.075 (651-779-5949)
WX ASOS at MSP (17 nm S): PHONE 612-713-4174
WX AWOS-3 at SGS (18 nm S): 119.425 (651-457-8120)

Nearby radio navigation aids

VOR radial/distance  VOR name  Freq  Var
GEPr083/10.8GOPHER VORTAC117.3006E
MSPr016/16.0MINNEAPOLIS VOR/DME115.3002E
FCMr034/23.9FLYING CLOUD VOR/DME117.7001E
FGTr359/31.3FARMINGTON VORTAC115.7006E

 
NDB name  Hdg/Dist  Freq  Var  ID
HOPEY333/18.240003EPPI .--. .--. ..
CAMBRIDGE165/25.235001ECBG -.-. -... --.
PRINCETON137/32.436803EPNM .--. -. --
RUSH CITY190/33.528202EROS .-. --- ...

Seaplane Base Services

Fuel available: 100LL
SERVICE AFTER HOURS 651-792-4703
Parking: tiedowns
Airframe service: MAJOR
Powerplant service: MAJOR

Runway Information

Runway NE/SW

Dimensions: 6500 x 1000 ft. / 1981 x 305 m
Surface: water
RUNWAY NE  RUNWAY SW
Traffic pattern: leftleft

Runway N/S

Dimensions: 5500 x 1000 ft. / 1676 x 305 m
Surface: water
RUNWAY N  RUNWAY S
Traffic pattern: leftleft

Seaplane Base Ownership and Management from official FAA records

Ownership: Privately-owned
Owner: SURFSIDE SEAPLANE BASE INC
6980 LAKE DR
LINO LAKES, MN 55014
Phone 651-780-4179
Manager: BRUCE R. HANSON
6980 LAKE DR
LINO LAKES, MN 55014
Phone 651-780-4179

Seaplane Base Operational Statistics

Aircraft based on the field: 40
Single engine airplanes: 40
    
Aircraft operations: avg 79/week *
76% local general aviation
24% transient general aviation
* for 12-month period ending 30 June 2015

Additional Remarks

PLAN APCH OVER MARSHAN OR BALDWIN LAKES.
500' TWR 2 MI EAST RIGHT OF DEP PATH.
SOUTH DEPS MAKE LEFT TURNOUT.

Instrument Procedures

There are no published instrument procedures at 8Y4.

Some nearby airports with instrument procedures:

KANE - Anoka County-Blaine Airport (Janes Field) (4 nm W)
KMIC - Crystal Airport (11 nm SW)
KSTP - St. Paul Downtown Airport / Holman Field (13 nm S)
21D - Lake Elmo Airport (14 nm SE)
KMSP - Minneapolis-St Paul International/Wold-Chamberlain Airport (17 nm S)
KSGS - South St Paul Municipal Airport-Richard E Fleming Field (18 nm S)
 
Loc | Ops | Rwys | IFR | FBO | Links
Com | Nav | Svcs | Stats | Notes


 
Area around 8Y4 (Surfside Seaplane Base)
 
Road maps at: MapQuest Bing Google
 
Aerial photo
WARNING: Photo may not be current or correct
Aerial photo of 8Y4 (Surfside Seaplane Base)
Photo by R. Johnson

Do you have a better or more recent aerial photo of Surfside Seaplane Base that you would like to share? If so, please send us your photo.

 
Sectional chart

 
Airport distance calculator
Flying to Surfside Seaplane Base? Find the distance to fly.

From to 8Y4

Sunrise and sunset
Times for 20-Jul-2018
 Local
(UTC-5)
 Zulu
(UTC)
Morning civil twilight05:1010:10
Sunrise05:4510:45
Sunset20:5201:52
Evening civil twilight21:2802:28

Current date and time
Zulu (UTC)  20-Jul-2018 05:23:21
Local (UTC-5)  20-Jul-2018 00:23:21
 
METAR
KANE 
4nm W 
200456Z AUTO 05005KT 10SM OVC010 19/18 A2971 RMK AO2
KMIC 
11nm SW 
200453Z AUTO 05007KT 10SM OVC012 18/16 A2970 RMK AO2 SLP053 T01830161
KSTP 
13nm S 
200453Z AUTO 06005KT 10SM OVC019 18/16 A2970 RMK AO2 SLP051 T01830161
K21D 
14nm SE 
200455Z AUTO 06006KT 10SM OVC010 18/17 A2971 RMK AO2
KMSP 
17nm S 
200453Z 07008KT 10SM OVC016 19/17 A2970 RMK AO2 SLP053 T01890167
KSGS 
18nm S 
200455Z AUTO 01003KT 10SM OVC014 19/17 A2969 RMK AO2 T01850169
TAF
KMSP 
17nm S 
200211Z 2002/2106 08011G17KT P6SM VCSH OVC019 FM200400 04009KT P6SM VCSH OVC015 TEMPO 2006/2010 6SM -SHRA OVC008 FM201400 34014G21KT 4SM -SHRA BR OVC007 FM202000 33012G21KT P6SM VCTS OVC025CB FM210000 33011KT P6SM OVC050
NOTAMs
Click for the latest NOTAMs
NOTAMs are issued by the DoD/FAA and will open in a separate window not controlled by AirNav.

 

 
 

FBO, Fuel Providers, and Aircraft Ground Support

  
 Business Name 
 
 Contact 
 
 Services / Description 
 
Fuel Prices
 
Comments
  
Adventure Bound Seaplanes 612-868-4243
no information available

If you are affiliated with Adventure Bound Seaplanes and would like to show here your services, contact info, web link, logo, and more, click here
100LL
FS $4.40 
 Updated 19-Jun-2015
 
   write
FS=Full service
Update Fuel Prices
 

Aviation Businesses, Services, and Facilities

  
 Business Name 
 
 Contact 
 
 Services / Description 
 
Distance
 
Comments
  
Seaplane Services, Inc 651-792-4703
toll-free 1-866-879-0854
[web site]
[email]
Aircraft ground handling, Hangars, Aircraft maintenance, Avionics sales and service, Aircraft modifications, Aircraft interiors, Aircraft cleaning / washing / detailing, Aircraft parts, ...

More info about Seaplane Services, Inc
on airport  
   write
 

Would you like to see your business listed on this page?

 If your business provides an interesting product or service to pilots, flight crews, aircraft, or users of the Surfside Seaplane Base, you should consider listing it here.  To start the listing process, click on the button below
 
Add a business
 

Other Pages about Surfside Seaplane Base

Update a link
 
Copyright © AirNav, LLC. All rights reserved. Privacy Policy  Contact